Startpagina
METAR-TAF:

METAR-TAF

Vliegvelden :

Flughafen Frankfurt am Main

Frankfurt am Main, Duitsland

breedte: 50-03N, lengte: 008-36E, hoogte: 111 m

Actueel weer

Dit bericht is 10 minuten geleden gemaakt, om 04:50 UTC
Wind 9 kt uit het noordoosten
Temperatuur 17°C
Vochtigheid 52%
Druk 1019 hPa
Zicht 10 km of meer
geen wolken onder 1500 m en geen cumulonimbus

METAR: EDDF 020450Z 04009KT CAVOK 17/07 Q1019 NOSIG

Tijdstip: 07:00 (05:00 UTC)

Verwachting

Dit bericht is 6 uur en het 0 minuten geleden gemaakt, om 23:00 UTC
Verwachting geldig van 02 om 00 UTC tot 03 om 06 UTC
Wind 7 kt uit het noordnoordoosten
Zicht 10 km of meer
geen wolken onder 1500 m en geen cumulonimbus
Wijzigt naar
van 02 om 08 UTC tot 02 om 10 UTC
Wind 6 kt uit het oosten
Wijzigt naar
van 02 om 20 UTC tot 02 om 22 UTC
Wind 4 kt uit het noordnoordoosten

TAF: EDDF 012300Z 0200/0306 03007KT CAVOK BECMG 0208/0210 09006KT BECMG 0220/0222 03004KT

Waarnemingen en weersverwachtingen van meer dan 4000 vliegvelden (METAR en TAF).

De beschikbare stations zijn de gele en rode punten op de kaart.

Ga met uw muis naar het station om de naam te zien.

Klik dan om waarnemingen en weersverwachtingen te zien.

kaart wijzigen: klik op de groene knoppen met een zwart kruis om in te zoomen, op de groene knop met een streepje om uit te zoomen of op de groene pijlen voor aangrenzende kaarten.


METAR-TAF: